Terminal Aerodrome Forecast
Issued by NWS

Home | Current Version | Previous Version | Text Only | Print | Product List | Glossary On
Versions: 1 2 3 4 5 6 7 8 9 10 11 12 13 14 15 16 17 18 19 20 21 22 23 24 25
000
FTUS44 KFWD 261100
TAFDAL
TAF
KDAL 261131Z 2612/2712 17013KT P6SM SCT018 OVC040
     FM261400 17014KT P6SM OVC018
     FM270000 16008KT 6SM BR OVC014
     FM270400 16005KT 4SM BR BKN007 OVC012
     FM270900 32016KT P6SM OVC012=

USA.gov is the U.S. government's official web portal to all federal, state and local government web resources and services.